sensor_id;sensor_type;location;lat;lon;timestamp;P1;durP1;ratioP1;P2;durP2;ratioP2
78372;SDS011;67656;52.074;4.758;2023-12-29T00:00:19;5.40;;;1.40;;
78372;SDS011;67656;52.074;4.758;2023-12-29T00:05:20;10.60;;;1.67;;
78372;SDS011;67656;52.074;4.758;2023-12-29T00:10:20;10.10;;;1.88;;
78372;SDS011;67656;52.074;4.758;2023-12-29T00:15:20;10.07;;;1.65;;
78372;SDS011;67656;52.074;4.758;2023-12-29T00:20:21;8.30;;;1.58;;
78372;SDS011;67656;52.074;4.758;2023-12-29T00:25:21;8.45;;;1.40;;
78372;SDS011;67656;52.074;4.758;2023-12-29T00:30:22;8.20;;;1.70;;
78372;SDS011;67656;52.074;4.758;2023-12-29T00:35:22;6.55;;;1.25;;
78372;SDS011;67656;52.074;4.758;2023-12-29T00:40:22;7.90;;;1.30;;
78372;SDS011;67656;52.074;4.758;2023-12-29T00:45:23;7.57;;;1.40;;
78372;SDS011;67656;52.074;4.758;2023-12-29T00:50:23;7.50;;;1.45;;
78372;SDS011;67656;52.074;4.758;2023-12-29T00:55:24;7.07;;;1.33;;
78372;SDS011;67656;52.074;4.758;2023-12-29T01:00:24;6.65;;;1.50;;
78372;SDS011;67656;52.074;4.758;2023-12-29T01:05:25;5.43;;;1.27;;
78372;SDS011;67656;52.074;4.758;2023-12-29T01:10:25;8.05;;;1.67;;
78372;SDS011;67656;52.074;4.758;2023-12-29T01:15:26;5.18;;;1.35;;
78372;SDS011;67656;52.074;4.758;2023-12-29T01:20:26;4.85;;;1.30;;
78372;SDS011;67656;52.074;4.758;2023-12-29T01:25:26;9.30;;;1.75;;
78372;SDS011;67656;52.074;4.758;2023-12-29T01:30:27;12.40;;;2.08;;
78372;SDS011;67656;52.074;4.758;2023-12-29T01:35:27;8.02;;;1.42;;
78372;SDS011;67656;52.074;4.758;2023-12-29T01:40:27;8.63;;;1.35;;
78372;SDS011;67656;52.074;4.758;2023-12-29T01:45:28;10.35;;;1.50;;
78372;SDS011;67656;52.074;4.758;2023-12-29T01:50:29;6.85;;;2.10;;
78372;SDS011;67656;52.074;4.758;2023-12-29T01:55:29;8.48;;;1.60;;
78372;SDS011;67656;52.074;4.758;2023-12-29T02:00:31;7.63;;;1.75;;
78372;SDS011;67656;52.074;4.758;2023-12-29T02:05:33;8.65;;;1.83;;
78372;SDS011;67656;52.074;4.758;2023-12-29T02:10:35;8.10;;;1.60;;
78372;SDS011;67656;52.074;4.758;2023-12-29T02:15:36;6.47;;;1.55;;
78372;SDS011;67656;52.074;4.758;2023-12-29T02:20:38;9.48;;;1.58;;
78372;SDS011;67656;52.074;4.758;2023-12-29T02:25:39;6.13;;;2.05;;
78372;SDS011;67656;52.074;4.758;2023-12-29T02:30:47;10.27;;;1.90;;
78372;SDS011;67656;52.074;4.758;2023-12-29T02:35:55;7.07;;;2.15;;
78372;SDS011;67656;52.074;4.758;2023-12-29T02:40:59;8.63;;;2.78;;
78372;SDS011;67656;52.074;4.758;2023-12-29T02:46:00;15.13;;;3.20;;
78372;SDS011;67656;52.074;4.758;2023-12-29T02:51:00;13.07;;;3.05;;
78372;SDS011;67656;52.074;4.758;2023-12-29T02:56:01;9.75;;;2.60;;
78372;SDS011;67656;52.074;4.758;2023-12-29T03:01:01;13.82;;;2.78;;
78372;SDS011;67656;52.074;4.758;2023-12-29T03:06:02;9.73;;;2.72;;
78372;SDS011;67656;52.074;4.758;2023-12-29T03:11:02;13.48;;;2.47;;
78372;SDS011;67656;52.074;4.758;2023-12-29T03:16:03;9.80;;;1.65;;
78372;SDS011;67656;52.074;4.758;2023-12-29T03:21:04;16.60;;;2.05;;
78372;SDS011;67656;52.074;4.758;2023-12-29T03:26:05;13.02;;;2.35;;
78372;SDS011;67656;52.074;4.758;2023-12-29T03:31:05;19.08;;;2.88;;
78372;SDS011;67656;52.074;4.758;2023-12-29T03:36:05;21.90;;;1.85;;
78372;SDS011;67656;52.074;4.758;2023-12-29T03:41:06;14.00;;;2.47;;
78372;SDS011;67656;52.074;4.758;2023-12-29T03:46:22;19.02;;;2.08;;
78372;SDS011;67656;52.074;4.758;2023-12-29T03:51:24;14.82;;;2.10;;
78372;SDS011;67656;52.074;4.758;2023-12-29T03:56:25;14.85;;;2.15;;
78372;SDS011;67656;52.074;4.758;2023-12-29T04:01:25;18.55;;;2.00;;
78372;SDS011;67656;52.074;4.758;2023-12-29T04:06:26;25.02;;;2.70;;
78372;SDS011;67656;52.074;4.758;2023-12-29T04:11:26;19.05;;;2.00;;
78372;SDS011;67656;52.074;4.758;2023-12-29T04:16:26;18.85;;;2.00;;
78372;SDS011;67656;52.074;4.758;2023-12-29T04:21:28;17.90;;;2.22;;
78372;SDS011;67656;52.074;4.758;2023-12-29T04:26:29;22.00;;;2.42;;
78372;SDS011;67656;52.074;4.758;2023-12-29T04:31:29;22.05;;;2.80;;
78372;SDS011;67656;52.074;4.758;2023-12-29T04:36:31;22.05;;;3.05;;
78372;SDS011;67656;52.074;4.758;2023-12-29T04:41:32;23.02;;;2.83;;
78372;SDS011;67656;52.074;4.758;2023-12-29T04:46:32;23.20;;;2.28;;
78372;SDS011;67656;52.074;4.758;2023-12-29T04:51:32;17.27;;;2.17;;
78372;SDS011;67656;52.074;4.758;2023-12-29T04:56:33;25.65;;;3.95;;
78372;SDS011;67656;52.074;4.758;2023-12-29T05:01:33;12.77;;;1.83;;
78372;SDS011;67656;52.074;4.758;2023-12-29T05:06:34;20.17;;;2.72;;
78372;SDS011;67656;52.074;4.758;2023-12-29T05:11:34;19.92;;;2.20;;
78372;SDS011;67656;52.074;4.758;2023-12-29T05:16:35;14.73;;;2.30;;
78372;SDS011;67656;52.074;4.758;2023-12-29T05:21:35;20.80;;;3.05;;
78372;SDS011;67656;52.074;4.758;2023-12-29T05:26:36;20.42;;;2.33;;
78372;SDS011;67656;52.074;4.758;2023-12-29T05:31:36;21.70;;;2.67;;
78372;SDS011;67656;52.074;4.758;2023-12-29T05:36:36;18.20;;;1.73;;
78372;SDS011;67656;52.074;4.758;2023-12-29T05:41:37;14.63;;;1.73;;
78372;SDS011;67656;52.074;4.758;2023-12-29T05:46:37;16.75;;;2.05;;
78372;SDS011;67656;52.074;4.758;2023-12-29T05:51:38;20.10;;;2.85;;
78372;SDS011;67656;52.074;4.758;2023-12-29T05:56:39;16.17;;;1.85;;
78372;SDS011;67656;52.074;4.758;2023-12-29T06:01:39;12.63;;;1.88;;
78372;SDS011;67656;52.074;4.758;2023-12-29T06:06:41;10.57;;;1.38;;
78372;SDS011;67656;52.074;4.758;2023-12-29T06:11:42;12.80;;;1.17;;
78372;SDS011;67656;52.074;4.758;2023-12-29T06:16:43;12.23;;;1.90;;
78372;SDS011;67656;52.074;4.758;2023-12-29T06:21:46;13.48;;;1.77;;
78372;SDS011;67656;52.074;4.758;2023-12-29T06:26:47;17.17;;;1.67;;
78372;SDS011;67656;52.074;4.758;2023-12-29T06:31:47;12.70;;;1.52;;
78372;SDS011;67656;52.074;4.758;2023-12-29T06:36:48;9.55;;;1.30;;
78372;SDS011;67656;52.074;4.758;2023-12-29T06:41:51;10.07;;;1.40;;
78372;SDS011;67656;52.074;4.758;2023-12-29T06:46:51;9.73;;;1.55;;
78372;SDS011;67656;52.074;4.758;2023-12-29T06:51:52;12.38;;;1.40;;
78372;SDS011;67656;52.074;4.758;2023-12-29T06:56:53;7.85;;;1.40;;
78372;SDS011;67656;52.074;4.758;2023-12-29T07:01:53;7.30;;;1.15;;
78372;SDS011;67656;52.074;4.758;2023-12-29T07:06:54;7.22;;;1.30;;
78372;SDS011;67656;52.074;4.758;2023-12-29T07:11:54;9.23;;;1.50;;
78372;SDS011;67656;52.074;4.758;2023-12-29T07:16:55;6.22;;;1.60;;
78372;SDS011;67656;52.074;4.758;2023-12-29T07:21:55;10.45;;;1.40;;
78372;SDS011;67656;52.074;4.758;2023-12-29T07:26:56;6.65;;;1.10;;
78372;SDS011;67656;52.074;4.758;2023-12-29T07:31:56;8.88;;;1.20;;
78372;SDS011;67656;52.074;4.758;2023-12-29T07:36:57;8.50;;;2.05;;
78372;SDS011;67656;52.074;4.758;2023-12-29T07:41:57;6.38;;;1.70;;
78372;SDS011;67656;52.074;4.758;2023-12-29T07:47:05;7.70;;;1.75;;
78372;SDS011;67656;52.074;4.758;2023-12-29T07:52:05;9.38;;;1.95;;
78372;SDS011;67656;52.074;4.758;2023-12-29T07:57:06;10.30;;;2.25;;
78372;SDS011;67656;52.074;4.758;2023-12-29T08:02:06;7.40;;;1.83;;
78372;SDS011;67656;52.074;4.758;2023-12-29T08:07:07;4.40;;;1.88;;
78372;SDS011;67656;52.074;4.758;2023-12-29T08:12:07;6.70;;;1.90;;
78372;SDS011;67656;52.074;4.758;2023-12-29T08:17:08;7.53;;;1.63;;
78372;SDS011;67656;52.074;4.758;2023-12-29T08:22:08;7.93;;;2.00;;
78372;SDS011;67656;52.074;4.758;2023-12-29T08:27:09;12.05;;;1.58;;
78372;SDS011;67656;52.074;4.758;2023-12-29T08:32:09;6.05;;;1.85;;
78372;SDS011;67656;52.074;4.758;2023-12-29T08:37:09;9.98;;;1.67;;
78372;SDS011;67656;52.074;4.758;2023-12-29T08:42:10;5.68;;;1.77;;
78372;SDS011;67656;52.074;4.758;2023-12-29T08:47:13;7.40;;;1.58;;
78372;SDS011;67656;52.074;4.758;2023-12-29T08:52:14;5.07;;;1.50;;
78372;SDS011;67656;52.074;4.758;2023-12-29T08:57:14;5.50;;;1.48;;
78372;SDS011;67656;52.074;4.758;2023-12-29T09:02:15;7.70;;;2.00;;
78372;SDS011;67656;52.074;4.758;2023-12-29T09:07:15;6.60;;;1.40;;
78372;SDS011;67656;52.074;4.758;2023-12-29T09:12:15;5.38;;;1.40;;
78372;SDS011;67656;52.074;4.758;2023-12-29T09:17:16;3.78;;;1.05;;
78372;SDS011;67656;52.074;4.758;2023-12-29T09:22:16;9.23;;;1.60;;
78372;SDS011;67656;52.074;4.758;2023-12-29T09:27:17;10.25;;;1.73;;
78372;SDS011;67656;52.074;4.758;2023-12-29T09:32:17;5.80;;;1.42;;
78372;SDS011;67656;52.074;4.758;2023-12-29T09:37:17;5.68;;;1.50;;
78372;SDS011;67656;52.074;4.758;2023-12-29T09:42:21;5.05;;;1.30;;
78372;SDS011;67656;52.074;4.758;2023-12-29T09:47:22;7.88;;;1.55;;
78372;SDS011;67656;52.074;4.758;2023-12-29T09:52:24;8.73;;;1.65;;
78372;SDS011;67656;52.074;4.758;2023-12-29T09:57:25;4.88;;;1.17;;
78372;SDS011;67656;52.074;4.758;2023-12-29T10:02:26;6.50;;;1.17;;
78372;SDS011;67656;52.074;4.758;2023-12-29T10:07:26;7.13;;;1.05;;
78372;SDS011;67656;52.074;4.758;2023-12-29T10:12:28;10.65;;;1.83;;
78372;SDS011;67656;52.074;4.758;2023-12-29T10:23:04;5.78;;;1.10;;
78372;SDS011;67656;52.074;4.758;2023-12-29T10:28:11;5.22;;;1.17;;
78372;SDS011;67656;52.074;4.758;2023-12-29T10:33:18;7.22;;;1.50;;
78372;SDS011;67656;52.074;4.758;2023-12-29T10:38:20;5.38;;;1.25;;
78372;SDS011;67656;52.074;4.758;2023-12-29T10:43:23;11.35;;;1.17;;
78372;SDS011;67656;52.074;4.758;2023-12-29T10:48:24;13.30;;;1.52;;
78372;SDS011;67656;52.074;4.758;2023-12-29T10:53:24;8.00;;;1.42;;
78372;SDS011;67656;52.074;4.758;2023-12-29T10:58:25;8.10;;;1.40;;
78372;SDS011;67656;52.074;4.758;2023-12-29T11:03:26;10.20;;;1.40;;
78372;SDS011;67656;52.074;4.758;2023-12-29T11:08:27;9.40;;;1.02;;
78372;SDS011;67656;52.074;4.758;2023-12-29T11:13:30;11.65;;;1.67;;
78372;SDS011;67656;52.074;4.758;2023-12-29T11:18:31;15.32;;;1.35;;
78372;SDS011;67656;52.074;4.758;2023-12-29T11:23:33;13.18;;;1.30;;
78372;SDS011;67656;52.074;4.758;2023-12-29T11:28:33;11.10;;;1.52;;
78372;SDS011;67656;52.074;4.758;2023-12-29T11:33:36;14.07;;;1.63;;
78372;SDS011;67656;52.074;4.758;2023-12-29T11:44:06;9.60;;;1.35;;
78372;SDS011;67656;52.074;4.758;2023-12-29T11:49:10;8.18;;;1.13;;
78372;SDS011;67656;52.074;4.758;2023-12-29T11:54:21;11.43;;;2.03;;
78372;SDS011;67656;52.074;4.758;2023-12-29T11:59:23;10.52;;;1.70;;
78372;SDS011;67656;52.074;4.758;2023-12-29T12:04:33;4.60;;;1.02;;
78372;SDS011;67656;52.074;4.758;2023-12-29T12:09:41;11.73;;;1.25;;
78372;SDS011;67656;52.074;4.758;2023-12-29T12:14:48;12.80;;;1.52;;
78372;SDS011;67656;52.074;4.758;2023-12-29T12:19:50;10.05;;;1.35;;
78372;SDS011;67656;52.074;4.758;2023-12-29T12:24:57;5.75;;;0.80;;
78372;SDS011;67656;52.074;4.758;2023-12-29T12:30:00;7.72;;;1.13;;
78372;SDS011;67656;52.074;4.758;2023-12-29T12:35:01;7.13;;;1.40;;
78372;SDS011;67656;52.074;4.758;2023-12-29T12:40:02;7.40;;;1.25;;
78372;SDS011;67656;52.074;4.758;2023-12-29T12:45:03;10.05;;;1.20;;
78372;SDS011;67656;52.074;4.758;2023-12-29T12:50:06;8.18;;;1.27;;
78372;SDS011;67656;52.074;4.758;2023-12-29T12:55:07;7.68;;;1.30;;
78372;SDS011;67656;52.074;4.758;2023-12-29T13:00:09;10.65;;;1.50;;
78372;SDS011;67656;52.074;4.758;2023-12-29T13:05:10;7.60;;;1.50;;
78372;SDS011;67656;52.074;4.758;2023-12-29T13:10:10;8.85;;;1.75;;
78372;SDS011;67656;52.074;4.758;2023-12-29T13:15:11;16.00;;;3.05;;
78372;SDS011;67656;52.074;4.758;2023-12-29T13:20:11;8.63;;;1.23;;
78372;SDS011;67656;52.074;4.758;2023-12-29T13:25:12;12.25;;;1.80;;
78372;SDS011;67656;52.074;4.758;2023-12-29T13:30:19;6.20;;;1.33;;
78372;SDS011;67656;52.074;4.758;2023-12-29T13:35:25;6.70;;;1.33;;
78372;SDS011;67656;52.074;4.758;2023-12-29T13:40:44;8.87;;;1.20;;
78372;SDS011;67656;52.074;4.758;2023-12-29T13:45:53;15.18;;;2.63;;
78372;SDS011;67656;52.074;4.758;2023-12-29T13:50:54;9.40;;;1.02;;
78372;SDS011;67656;52.074;4.758;2023-12-29T13:56:04;4.38;;;1.02;;
78372;SDS011;67656;52.074;4.758;2023-12-29T14:01:09;12.27;;;1.33;;
78372;SDS011;67656;52.074;4.758;2023-12-29T14:06:11;9.90;;;1.23;;
78372;SDS011;67656;52.074;4.758;2023-12-29T14:11:19;11.98;;;1.20;;
78372;SDS011;67656;52.074;4.758;2023-12-29T14:16:19;10.38;;;1.52;;
78372;SDS011;67656;52.074;4.758;2023-12-29T14:21:23;10.70;;;1.27;;
78372;SDS011;67656;52.074;4.758;2023-12-29T14:26:24;11.43;;;2.20;;
78372;SDS011;67656;52.074;4.758;2023-12-29T14:31:24;7.88;;;1.45;;
78372;SDS011;67656;52.074;4.758;2023-12-29T14:36:25;11.75;;;1.83;;
78372;SDS011;67656;52.074;4.758;2023-12-29T14:41:25;17.90;;;2.15;;
78372;SDS011;67656;52.074;4.758;2023-12-29T14:46:26;12.63;;;1.77;;
78372;SDS011;67656;52.074;4.758;2023-12-29T14:51:26;14.85;;;3.03;;
78372;SDS011;67656;52.074;4.758;2023-12-29T14:56:26;12.15;;;1.60;;
78372;SDS011;67656;52.074;4.758;2023-12-29T15:01:27;4.82;;;0.80;;
78372;SDS011;67656;52.074;4.758;2023-12-29T15:06:27;3.97;;;1.10;;
78372;SDS011;67656;52.074;4.758;2023-12-29T15:11:28;6.97;;;1.15;;
78372;SDS011;67656;52.074;4.758;2023-12-29T15:16:28;7.38;;;1.50;;
78372;SDS011;67656;52.074;4.758;2023-12-29T15:21:28;5.95;;;0.90;;
78372;SDS011;67656;52.074;4.758;2023-12-29T15:26:29;10.55;;;1.20;;
78372;SDS011;67656;52.074;4.758;2023-12-29T15:31:29;5.63;;;1.23;;
78372;SDS011;67656;52.074;4.758;2023-12-29T15:36:30;12.65;;;1.40;;
78372;SDS011;67656;52.074;4.758;2023-12-29T15:41:33;7.80;;;1.05;;
78372;SDS011;67656;52.074;4.758;2023-12-29T15:46:34;6.50;;;0.97;;
78372;SDS011;67656;52.074;4.758;2023-12-29T15:51:34;9.88;;;1.55;;
78372;SDS011;67656;52.074;4.758;2023-12-29T15:56:34;10.20;;;1.38;;
78372;SDS011;67656;52.074;4.758;2023-12-29T16:01:35;15.30;;;1.55;;
78372;SDS011;67656;52.074;4.758;2023-12-29T16:06:35;11.88;;;1.58;;
78372;SDS011;67656;52.074;4.758;2023-12-29T16:11:35;8.70;;;1.08;;
78372;SDS011;67656;52.074;4.758;2023-12-29T16:16:38;14.05;;;1.33;;
78372;SDS011;67656;52.074;4.758;2023-12-29T16:21:39;9.45;;;1.02;;
78372;SDS011;67656;52.074;4.758;2023-12-29T16:26:39;6.28;;;0.80;;
78372;SDS011;67656;52.074;4.758;2023-12-29T16:31:40;8.23;;;0.80;;
78372;SDS011;67656;52.074;4.758;2023-12-29T16:36:40;1.42;;;0.60;;
78372;SDS011;67656;52.074;4.758;2023-12-29T16:41:40;2.67;;;0.80;;
78372;SDS011;67656;52.074;4.758;2023-12-29T16:46:43;5.23;;;1.20;;
78372;SDS011;67656;52.074;4.758;2023-12-29T16:51:44;4.87;;;1.80;;
78372;SDS011;67656;52.074;4.758;2023-12-29T16:56:44;4.90;;;1.70;;
78372;SDS011;67656;52.074;4.758;2023-12-29T17:01:44;6.90;;;2.27;;
78372;SDS011;67656;52.074;4.758;2023-12-29T17:06:45;2.63;;;1.83;;
78372;SDS011;67656;52.074;4.758;2023-12-29T17:11:45;5.60;;;1.73;;
78372;SDS011;67656;52.074;4.758;2023-12-29T17:16:45;7.73;;;2.20;;
78372;SDS011;67656;52.074;4.758;2023-12-29T17:21:46;11.63;;;3.00;;
78372;SDS011;67656;52.074;4.758;2023-12-29T17:26:46;8.07;;;1.50;;
78372;SDS011;67656;52.074;4.758;2023-12-29T17:31:47;2.20;;;1.17;;
78372;SDS011;67656;52.074;4.758;2023-12-29T17:36:47;7.23;;;2.17;;
78372;SDS011;67656;52.074;4.758;2023-12-29T17:41:48;6.77;;;3.47;;
78372;SDS011;67656;52.074;4.758;2023-12-29T17:46:48;30.13;;;10.13;;
78372;SDS011;67656;52.074;4.758;2023-12-29T17:51:48;9.23;;;3.00;;
78372;SDS011;67656;52.074;4.758;2023-12-29T17:56:49;8.37;;;2.67;;
78372;SDS011;67656;52.074;4.758;2023-12-29T18:01:49;7.57;;;2.20;;
78372;SDS011;67656;52.074;4.758;2023-12-29T18:06:50;13.10;;;4.73;;
78372;SDS011;67656;52.074;4.758;2023-12-29T18:11:50;8.73;;;2.03;;
78372;SDS011;67656;52.074;4.758;2023-12-29T18:16:51;12.00;;;2.83;;
78372;SDS011;67656;52.074;4.758;2023-12-29T18:21:51;9.47;;;2.10;;
78372;SDS011;67656;52.074;4.758;2023-12-29T18:26:52;9.77;;;2.17;;
78372;SDS011;67656;52.074;4.758;2023-12-29T18:31:52;8.47;;;1.60;;
78372;SDS011;67656;52.074;4.758;2023-12-29T18:36:52;5.50;;;1.33;;
78372;SDS011;67656;52.074;4.758;2023-12-29T18:41:53;8.50;;;1.90;;
78372;SDS011;67656;52.074;4.758;2023-12-29T18:46:53;17.10;;;3.70;;
78372;SDS011;67656;52.074;4.758;2023-12-29T18:51:53;7.43;;;1.63;;
78372;SDS011;67656;52.074;4.758;2023-12-29T18:56:54;10.63;;;1.40;;
78372;SDS011;67656;52.074;4.758;2023-12-29T19:01:54;5.97;;;1.20;;
78372;SDS011;67656;52.074;4.758;2023-12-29T19:06:54;7.83;;;1.90;;
78372;SDS011;67656;52.074;4.758;2023-12-29T19:11:55;6.70;;;1.20;;
78372;SDS011;67656;52.074;4.758;2023-12-29T19:16:56;4.10;;;0.93;;
78372;SDS011;67656;52.074;4.758;2023-12-29T19:21:56;5.85;;;1.40;;
78372;SDS011;67656;52.074;4.758;2023-12-29T19:26:56;4.93;;;1.10;;
78372;SDS011;67656;52.074;4.758;2023-12-29T19:31:57;1.50;;;0.60;;
78372;SDS011;67656;52.074;4.758;2023-12-29T19:36:57;3.08;;;1.20;;
78372;SDS011;67656;52.074;4.758;2023-12-29T19:41:57;1.80;;;0.68;;
78372;SDS011;67656;52.074;4.758;2023-12-29T19:46:58;5.40;;;1.63;;
78372;SDS011;67656;52.074;4.758;2023-12-29T19:51:58;3.97;;;0.60;;
78372;SDS011;67656;52.074;4.758;2023-12-29T19:56:59;2.65;;;0.60;;
78372;SDS011;67656;52.074;4.758;2023-12-29T20:01:59;0.98;;;0.30;;
78372;SDS011;67656;52.074;4.758;2023-12-29T20:06:59;5.43;;;0.50;;
78372;SDS011;67656;52.074;4.758;2023-12-29T20:12:00;3.58;;;0.70;;
78372;SDS011;67656;52.074;4.758;2023-12-29T20:17:00;3.15;;;0.75;;
78372;SDS011;67656;52.074;4.758;2023-12-29T20:22:01;6.13;;;0.70;;
78372;SDS011;67656;52.074;4.758;2023-12-29T20:27:04;0.90;;;0.50;;
78372;SDS011;67656;52.074;4.758;2023-12-29T20:32:05;1.27;;;0.60;;
78372;SDS011;67656;52.074;4.758;2023-12-29T20:37:12;1.30;;;0.40;;
78372;SDS011;67656;52.074;4.758;2023-12-29T20:42:18;1.33;;;0.40;;
78372;SDS011;67656;52.074;4.758;2023-12-29T20:47:22;3.30;;;0.70;;
78372;SDS011;67656;52.074;4.758;2023-12-29T20:52:22;2.57;;;0.97;;
78372;SDS011;67656;52.074;4.758;2023-12-29T20:57:23;3.20;;;0.70;;
78372;SDS011;67656;52.074;4.758;2023-12-29T21:02:23;2.70;;;0.70;;
78372;SDS011;67656;52.074;4.758;2023-12-29T21:07:24;4.20;;;0.77;;
78372;SDS011;67656;52.074;4.758;2023-12-29T21:12:24;9.43;;;1.07;;
78372;SDS011;67656;52.074;4.758;2023-12-29T21:17:24;1.70;;;0.70;;
78372;SDS011;67656;52.074;4.758;2023-12-29T21:22:25;7.63;;;1.23;;
78372;SDS011;67656;52.074;4.758;2023-12-29T21:27:25;4.67;;;1.10;;
78372;SDS011;67656;52.074;4.758;2023-12-29T21:32:25;8.43;;;1.33;;
78372;SDS011;67656;52.074;4.758;2023-12-29T21:37:26;9.87;;;2.93;;
78372;SDS011;67656;52.074;4.758;2023-12-29T21:42:26;11.27;;;1.43;;
78372;SDS011;67656;52.074;4.758;2023-12-29T21:47:27;6.37;;;1.13;;
78372;SDS011;67656;52.074;4.758;2023-12-29T21:52:27;5.03;;;0.90;;
78372;SDS011;67656;52.074;4.758;2023-12-29T21:57:27;11.87;;;2.13;;
78372;SDS011;67656;52.074;4.758;2023-12-29T22:02:28;5.87;;;1.37;;
78372;SDS011;67656;52.074;4.758;2023-12-29T22:07:28;5.47;;;1.17;;
78372;SDS011;67656;52.074;4.758;2023-12-29T22:12:28;5.83;;;1.20;;
78372;SDS011;67656;52.074;4.758;2023-12-29T22:17:29;8.37;;;1.80;;
78372;SDS011;67656;52.074;4.758;2023-12-29T22:22:29;4.70;;;1.10;;
78372;SDS011;67656;52.074;4.758;2023-12-29T22:27:29;8.90;;;1.13;;
78372;SDS011;67656;52.074;4.758;2023-12-29T22:32:30;6.20;;;0.93;;
78372;SDS011;67656;52.074;4.758;2023-12-29T22:37:30;11.43;;;1.10;;
78372;SDS011;67656;52.074;4.758;2023-12-29T22:42:30;7.90;;;0.80;;
78372;SDS011;67656;52.074;4.758;2023-12-29T22:47:31;2.97;;;0.80;;
78372;SDS011;67656;52.074;4.758;2023-12-29T22:52:31;5.33;;;0.60;;
78372;SDS011;67656;52.074;4.758;2023-12-29T22:57:32;3.50;;;0.70;;
78372;SDS011;67656;52.074;4.758;2023-12-29T23:02:32;4.87;;;0.90;;
78372;SDS011;67656;52.074;4.758;2023-12-29T23:07:32;8.00;;;0.87;;
78372;SDS011;67656;52.074;4.758;2023-12-29T23:12:33;1.53;;;0.50;;
78372;SDS011;67656;52.074;4.758;2023-12-29T23:17:33;5.73;;;1.30;;
78372;SDS011;67656;52.074;4.758;2023-12-29T23:22:34;4.63;;;0.80;;
78372;SDS011;67656;52.074;4.758;2023-12-29T23:27:34;8.60;;;1.00;;
78372;SDS011;67656;52.074;4.758;2023-12-29T23:32:35;9.03;;;1.10;;
78372;SDS011;67656;52.074;4.758;2023-12-29T23:37:35;6.43;;;0.80;;
78372;SDS011;67656;52.074;4.758;2023-12-29T23:42:35;6.83;;;1.13;;
78372;SDS011;67656;52.074;4.758;2023-12-29T23:47:36;4.30;;;0.70;;
78372;SDS011;67656;52.074;4.758;2023-12-29T23:52:36;3.67;;;0.87;;
78372;SDS011;67656;52.074;4.758;2023-12-29T23:57:36;5.20;;;0.80;;
